sensor_id;sensor_type;location;lat;lon;timestamp;P1;durP1;ratioP1;P2;durP2;ratioP2
2099;SDS011;1055;48.854;9.302;2022-10-17T00:00:25;14.30;;;7.70;;
2099;SDS011;1055;48.854;9.302;2022-10-17T00:02:53;13.13;;;7.60;;
2099;SDS011;1055;48.854;9.302;2022-10-17T00:05:19;16.87;;;7.60;;
2099;SDS011;1055;48.854;9.302;2022-10-17T00:07:45;10.53;;;6.93;;
2099;SDS011;1055;48.854;9.302;2022-10-17T00:10:11;19.27;;;7.90;;
2099;SDS011;1055;48.854;9.302;2022-10-17T00:12:36;10.50;;;6.43;;
2099;SDS011;1055;48.854;9.302;2022-10-17T00:15:03;9.47;;;6.03;;
2099;SDS011;1055;48.854;9.302;2022-10-17T00:17:31;12.90;;;7.70;;
2099;SDS011;1055;48.854;9.302;2022-10-17T00:19:58;11.77;;;5.83;;
2099;SDS011;1055;48.854;9.302;2022-10-17T00:22:24;13.70;;;6.10;;
2099;SDS011;1055;48.854;9.302;2022-10-17T00:24:50;12.53;;;5.87;;
2099;SDS011;1055;48.854;9.302;2022-10-17T00:27:16;10.43;;;5.43;;
2099;SDS011;1055;48.854;9.302;2022-10-17T00:29:42;11.67;;;5.70;;
2099;SDS011;1055;48.854;9.302;2022-10-17T00:32:11;12.13;;;5.63;;
2099;SDS011;1055;48.854;9.302;2022-10-17T00:34:37;11.33;;;5.07;;
2099;SDS011;1055;48.854;9.302;2022-10-17T00:37:02;15.50;;;4.80;;
2099;SDS011;1055;48.854;9.302;2022-10-17T00:39:28;10.27;;;5.13;;
2099;SDS011;1055;48.854;9.302;2022-10-17T00:41:53;9.70;;;5.77;;
2099;SDS011;1055;48.854;9.302;2022-10-17T00:46:54;18.73;;;4.90;;
2099;SDS011;1055;48.854;9.302;2022-10-17T00:49:29;13.23;;;5.00;;
2099;SDS011;1055;48.854;9.302;2022-10-17T00:51:59;11.70;;;4.40;;
2099;SDS011;1055;48.854;9.302;2022-10-17T00:54:30;11.70;;;5.13;;
2099;SDS011;1055;48.854;9.302;2022-10-17T00:56:58;10.20;;;5.03;;
2099;SDS011;1055;48.854;9.302;2022-10-17T00:59:25;11.33;;;4.40;;
2099;SDS011;1055;48.854;9.302;2022-10-17T01:02:01;14.73;;;4.67;;
2099;SDS011;1055;48.854;9.302;2022-10-17T01:04:30;19.33;;;5.13;;
2099;SDS011;1055;48.854;9.302;2022-10-17T01:06:56;15.30;;;5.33;;
2099;SDS011;1055;48.854;9.302;2022-10-17T01:09:22;12.87;;;5.00;;
2099;SDS011;1055;48.854;9.302;2022-10-17T01:11:49;8.93;;;4.50;;
2099;SDS011;1055;48.854;9.302;2022-10-17T01:14:38;8.50;;;4.47;;
2099;SDS011;1055;48.854;9.302;2022-10-17T01:22:26;10.60;;;4.80;;
2099;SDS011;1055;48.854;9.302;2022-10-17T01:25:00;10.90;;;4.80;;
2099;SDS011;1055;48.854;9.302;2022-10-17T01:38:59;11.80;;;5.17;;
2099;SDS011;1055;48.854;9.302;2022-10-17T01:44:22;10.83;;;5.47;;
2099;SDS011;1055;48.854;9.302;2022-10-17T01:47:01;10.57;;;4.80;;
2099;SDS011;1055;48.854;9.302;2022-10-17T01:49:30;15.30;;;4.93;;
2099;SDS011;1055;48.854;9.302;2022-10-17T01:52:05;9.60;;;4.53;;
2099;SDS011;1055;48.854;9.302;2022-10-17T01:55:16;10.07;;;4.87;;
2099;SDS011;1055;48.854;9.302;2022-10-17T01:57:45;15.17;;;6.43;;
2099;SDS011;1055;48.854;9.302;2022-10-17T02:00:16;11.03;;;5.27;;
2099;SDS011;1055;48.854;9.302;2022-10-17T02:02:46;12.33;;;4.07;;
2099;SDS011;1055;48.854;9.302;2022-10-17T02:05:14;11.10;;;5.30;;
2099;SDS011;1055;48.854;9.302;2022-10-17T02:07:42;12.60;;;5.30;;
2099;SDS011;1055;48.854;9.302;2022-10-17T02:10:09;11.40;;;5.60;;
2099;SDS011;1055;48.854;9.302;2022-10-17T02:12:50;12.37;;;5.30;;
2099;SDS011;1055;48.854;9.302;2022-10-17T02:15:41;12.50;;;5.40;;
2099;SDS011;1055;48.854;9.302;2022-10-17T02:19:01;9.53;;;5.17;;
2099;SDS011;1055;48.854;9.302;2022-10-17T02:27:05;11.47;;;5.67;;
2099;SDS011;1055;48.854;9.302;2022-10-17T02:29:37;13.57;;;5.90;;
2099;SDS011;1055;48.854;9.302;2022-10-17T02:32:12;16.43;;;5.53;;
2099;SDS011;1055;48.854;9.302;2022-10-17T02:34:44;9.73;;;4.77;;
2099;SDS011;1055;48.854;9.302;2022-10-17T02:37:12;8.83;;;4.43;;
2099;SDS011;1055;48.854;9.302;2022-10-17T02:39:42;10.83;;;4.93;;
2099;SDS011;1055;48.854;9.302;2022-10-17T02:42:09;10.10;;;4.10;;
2099;SDS011;1055;48.854;9.302;2022-10-17T02:44:38;8.00;;;4.03;;
2099;SDS011;1055;48.854;9.302;2022-10-17T02:49:44;8.70;;;3.97;;
2099;SDS011;1055;48.854;9.302;2022-10-17T02:52:15;10.37;;;3.70;;
2099;SDS011;1055;48.854;9.302;2022-10-17T02:55:06;8.10;;;3.97;;
2099;SDS011;1055;48.854;9.302;2022-10-17T02:57:41;11.40;;;4.67;;
2099;SDS011;1055;48.854;9.302;2022-10-17T03:00:12;7.70;;;3.70;;
2099;SDS011;1055;48.854;9.302;2022-10-17T03:02:40;11.67;;;4.67;;
2099;SDS011;1055;48.854;9.302;2022-10-17T03:05:19;10.83;;;4.17;;
2099;SDS011;1055;48.854;9.302;2022-10-17T03:07:46;11.23;;;4.47;;
2099;SDS011;1055;48.854;9.302;2022-10-17T03:10:11;10.60;;;4.43;;
2099;SDS011;1055;48.854;9.302;2022-10-17T03:12:37;10.77;;;4.57;;
2099;SDS011;1055;48.854;9.302;2022-10-17T03:15:03;14.80;;;4.70;;
2099;SDS011;1055;48.854;9.302;2022-10-17T03:17:29;11.07;;;4.57;;
2099;SDS011;1055;48.854;9.302;2022-10-17T03:19:55;11.17;;;5.10;;
2099;SDS011;1055;48.854;9.302;2022-10-17T03:22:20;8.30;;;4.37;;
2099;SDS011;1055;48.854;9.302;2022-10-17T03:24:46;11.40;;;4.57;;
2099;SDS011;1055;48.854;9.302;2022-10-17T03:27:12;13.70;;;5.40;;
2099;SDS011;1055;48.854;9.302;2022-10-17T03:29:37;9.30;;;4.30;;
2099;SDS011;1055;48.854;9.302;2022-10-17T03:32:03;17.87;;;4.53;;
2099;SDS011;1055;48.854;9.302;2022-10-17T03:34:29;7.70;;;3.47;;
2099;SDS011;1055;48.854;9.302;2022-10-17T03:36:54;10.20;;;4.70;;
2099;SDS011;1055;48.854;9.302;2022-10-17T03:39:20;8.10;;;4.27;;
2099;SDS011;1055;48.854;9.302;2022-10-17T03:41:45;8.50;;;4.27;;
2099;SDS011;1055;48.854;9.302;2022-10-17T03:44:11;10.77;;;4.83;;
2099;SDS011;1055;48.854;9.302;2022-10-17T03:46:37;15.23;;;4.50;;
2099;SDS011;1055;48.854;9.302;2022-10-17T03:49:02;12.03;;;4.53;;
2099;SDS011;1055;48.854;9.302;2022-10-17T03:51:28;10.10;;;4.67;;
2099;SDS011;1055;48.854;9.302;2022-10-17T03:53:53;7.10;;;3.80;;
2099;SDS011;1055;48.854;9.302;2022-10-17T03:56:20;18.57;;;5.03;;
2099;SDS011;1055;48.854;9.302;2022-10-17T03:58:47;7.70;;;4.20;;
2099;SDS011;1055;48.854;9.302;2022-10-17T04:01:13;19.57;;;5.27;;
2099;SDS011;1055;48.854;9.302;2022-10-17T04:03:40;9.17;;;4.30;;
2099;SDS011;1055;48.854;9.302;2022-10-17T04:06:07;13.03;;;4.47;;
2099;SDS011;1055;48.854;9.302;2022-10-17T04:08:34;10.50;;;4.50;;
2099;SDS011;1055;48.854;9.302;2022-10-17T04:11:00;10.23;;;4.93;;
2099;SDS011;1055;48.854;9.302;2022-10-17T04:13:28;14.73;;;4.80;;
2099;SDS011;1055;48.854;9.302;2022-10-17T04:15:57;11.03;;;4.87;;
2099;SDS011;1055;48.854;9.302;2022-10-17T04:18:27;12.45;;;4.70;;
2099;SDS011;1055;48.854;9.302;2022-10-17T04:20:52;9.70;;;5.40;;
2099;SDS011;1055;48.854;9.302;2022-10-17T04:23:18;9.60;;;5.27;;
2099;SDS011;1055;48.854;9.302;2022-10-17T04:25:44;14.97;;;6.23;;
2099;SDS011;1055;48.854;9.302;2022-10-17T04:28:10;12.55;;;5.03;;
2099;SDS011;1055;48.854;9.302;2022-10-17T04:30:36;11.17;;;5.17;;
2099;SDS011;1055;48.854;9.302;2022-10-17T04:33:02;10.97;;;5.80;;
2099;SDS011;1055;48.854;9.302;2022-10-17T04:35:27;12.50;;;5.37;;
2099;SDS011;1055;48.854;9.302;2022-10-17T04:37:53;10.03;;;5.27;;
2099;SDS011;1055;48.854;9.302;2022-10-17T04:40:19;10.73;;;4.70;;
2099;SDS011;1055;48.854;9.302;2022-10-17T04:42:45;10.00;;;5.40;;
2099;SDS011;1055;48.854;9.302;2022-10-17T04:45:10;8.57;;;4.80;;
2099;SDS011;1055;48.854;9.302;2022-10-17T04:47:37;10.27;;;5.43;;
2099;SDS011;1055;48.854;9.302;2022-10-17T04:50:03;10.23;;;5.80;;
2099;SDS011;1055;48.854;9.302;2022-10-17T04:52:29;11.52;;;5.70;;
2099;SDS011;1055;48.854;9.302;2022-10-17T04:54:55;11.73;;;5.60;;
2099;SDS011;1055;48.854;9.302;2022-10-17T04:57:21;10.97;;;5.40;;
2099;SDS011;1055;48.854;9.302;2022-10-17T04:59:48;10.18;;;4.80;;
2099;SDS011;1055;48.854;9.302;2022-10-17T05:02:14;9.70;;;4.27;;
2099;SDS011;1055;48.854;9.302;2022-10-17T05:04:40;11.25;;;5.85;;
2099;SDS011;1055;48.854;9.302;2022-10-17T05:07:06;12.53;;;6.07;;
2099;SDS011;1055;48.854;9.302;2022-10-17T05:09:32;8.60;;;4.17;;
2099;SDS011;1055;48.854;9.302;2022-10-17T05:11:57;13.03;;;4.90;;
2099;SDS011;1055;48.854;9.302;2022-10-17T05:14:23;8.67;;;4.70;;
2099;SDS011;1055;48.854;9.302;2022-10-17T05:16:49;8.70;;;4.70;;
2099;SDS011;1055;48.854;9.302;2022-10-17T05:19:15;12.70;;;5.00;;
2099;SDS011;1055;48.854;9.302;2022-10-17T05:21:42;8.48;;;4.60;;
2099;SDS011;1055;48.854;9.302;2022-10-17T05:24:08;7.33;;;4.20;;
2099;SDS011;1055;48.854;9.302;2022-10-17T05:26:35;13.48;;;4.95;;
2099;SDS011;1055;48.854;9.302;2022-10-17T05:29:01;12.53;;;4.30;;
2099;SDS011;1055;48.854;9.302;2022-10-17T05:31:28;8.80;;;4.55;;
2099;SDS011;1055;48.854;9.302;2022-10-17T05:33:54;8.17;;;4.80;;
2099;SDS011;1055;48.854;9.302;2022-10-17T05:36:20;10.35;;;4.72;;
2099;SDS011;1055;48.854;9.302;2022-10-17T05:38:50;10.70;;;4.90;;
2099;SDS011;1055;48.854;9.302;2022-10-17T05:41:16;13.55;;;4.88;;
2099;SDS011;1055;48.854;9.302;2022-10-17T05:43:43;9.52;;;4.40;;
2099;SDS011;1055;48.854;9.302;2022-10-17T05:46:09;13.43;;;5.00;;
2099;SDS011;1055;48.854;9.302;2022-10-17T05:48:35;10.67;;;5.13;;
2099;SDS011;1055;48.854;9.302;2022-10-17T05:51:02;16.43;;;5.37;;
2099;SDS011;1055;48.854;9.302;2022-10-17T05:53:30;11.40;;;4.95;;
2099;SDS011;1055;48.854;9.302;2022-10-17T05:55:57;10.00;;;5.25;;
2099;SDS011;1055;48.854;9.302;2022-10-17T05:58:24;8.25;;;4.80;;
2099;SDS011;1055;48.854;9.302;2022-10-17T06:00:51;14.55;;;5.70;;
2099;SDS011;1055;48.854;9.302;2022-10-17T06:03:21;12.38;;;4.90;;
2099;SDS011;1055;48.854;9.302;2022-10-17T06:05:46;9.80;;;5.50;;
2099;SDS011;1055;48.854;9.302;2022-10-17T06:08:12;11.43;;;4.87;;
2099;SDS011;1055;48.854;9.302;2022-10-17T06:10:37;11.70;;;5.07;;
2099;SDS011;1055;48.854;9.302;2022-10-17T06:13:03;13.20;;;5.43;;
2099;SDS011;1055;48.854;9.302;2022-10-17T06:15:29;11.87;;;6.47;;
2099;SDS011;1055;48.854;9.302;2022-10-17T06:17:54;7.70;;;4.80;;
2099;SDS011;1055;48.854;9.302;2022-10-17T06:20:20;8.40;;;4.93;;
2099;SDS011;1055;48.854;9.302;2022-10-17T06:22:46;14.30;;;5.40;;
2099;SDS011;1055;48.854;9.302;2022-10-17T06:25:11;10.00;;;4.97;;
2099;SDS011;1055;48.854;9.302;2022-10-17T06:27:37;9.90;;;4.80;;
2099;SDS011;1055;48.854;9.302;2022-10-17T06:30:02;12.77;;;4.87;;
2099;SDS011;1055;48.854;9.302;2022-10-17T06:32:28;11.93;;;5.75;;
2099;SDS011;1055;48.854;9.302;2022-10-17T06:34:54;10.00;;;4.80;;
2099;SDS011;1055;48.854;9.302;2022-10-17T06:37:20;8.83;;;5.00;;
2099;SDS011;1055;48.854;9.302;2022-10-17T06:39:45;8.70;;;4.70;;
2099;SDS011;1055;48.854;9.302;2022-10-17T06:42:11;9.93;;;4.73;;
2099;SDS011;1055;48.854;9.302;2022-10-17T06:44:36;18.73;;;5.43;;
2099;SDS011;1055;48.854;9.302;2022-10-17T06:47:04;22.03;;;5.10;;
2099;SDS011;1055;48.854;9.302;2022-10-17T06:49:29;11.97;;;4.70;;
2099;SDS011;1055;48.854;9.302;2022-10-17T06:51:56;13.03;;;4.70;;
2099;SDS011;1055;48.854;9.302;2022-10-17T06:54:22;15.57;;;4.87;;
2099;SDS011;1055;48.854;9.302;2022-10-17T06:56:48;8.53;;;5.07;;
2099;SDS011;1055;48.854;9.302;2022-10-17T06:59:14;7.50;;;3.90;;
2099;SDS011;1055;48.854;9.302;2022-10-17T07:01:39;10.07;;;4.90;;
2099;SDS011;1055;48.854;9.302;2022-10-17T07:04:05;9.20;;;5.27;;
2099;SDS011;1055;48.854;9.302;2022-10-17T07:06:31;11.30;;;5.30;;
2099;SDS011;1055;48.854;9.302;2022-10-17T07:08:56;11.53;;;5.17;;
2099;SDS011;1055;48.854;9.302;2022-10-17T07:11:22;8.60;;;4.33;;
2099;SDS011;1055;48.854;9.302;2022-10-17T07:13:49;12.97;;;4.60;;
2099;SDS011;1055;48.854;9.302;2022-10-17T07:16:15;15.40;;;4.10;;
2099;SDS011;1055;48.854;9.302;2022-10-17T07:18:41;11.17;;;4.57;;
2099;SDS011;1055;48.854;9.302;2022-10-17T07:21:07;10.87;;;4.73;;
2099;SDS011;1055;48.854;9.302;2022-10-17T07:23:33;9.70;;;4.47;;
2099;SDS011;1055;48.854;9.302;2022-10-17T07:26:04;8.63;;;4.80;;
2099;SDS011;1055;48.854;9.302;2022-10-17T07:28:36;11.10;;;4.13;;
2099;SDS011;1055;48.854;9.302;2022-10-17T07:31:05;11.10;;;4.33;;
2099;SDS011;1055;48.854;9.302;2022-10-17T07:33:32;9.47;;;4.40;;
2099;SDS011;1055;48.854;9.302;2022-10-17T07:36:01;8.70;;;4.17;;
2099;SDS011;1055;48.854;9.302;2022-10-17T07:38:27;9.30;;;3.80;;
2099;SDS011;1055;48.854;9.302;2022-10-17T07:40:54;13.10;;;3.97;;
2099;SDS011;1055;48.854;9.302;2022-10-17T07:43:20;9.13;;;3.40;;
2099;SDS011;1055;48.854;9.302;2022-10-17T07:45:46;10.43;;;4.83;;
2099;SDS011;1055;48.854;9.302;2022-10-17T07:48:12;14.83;;;4.90;;
2099;SDS011;1055;48.854;9.302;2022-10-17T07:50:38;10.47;;;4.03;;
2099;SDS011;1055;48.854;9.302;2022-10-17T07:53:03;9.90;;;4.77;;
2099;SDS011;1055;48.854;9.302;2022-10-17T07:55:29;12.67;;;3.80;;
2099;SDS011;1055;48.854;9.302;2022-10-17T07:57:55;9.77;;;3.90;;
2099;SDS011;1055;48.854;9.302;2022-10-17T08:00:22;10.20;;;4.57;;
2099;SDS011;1055;48.854;9.302;2022-10-17T08:02:47;8.43;;;4.20;;
2099;SDS011;1055;48.854;9.302;2022-10-17T08:05:13;10.80;;;3.70;;
2099;SDS011;1055;48.854;9.302;2022-10-17T08:07:39;7.30;;;3.60;;
2099;SDS011;1055;48.854;9.302;2022-10-17T08:10:05;8.53;;;3.80;;
2099;SDS011;1055;48.854;9.302;2022-10-17T08:12:32;7.60;;;3.40;;
2099;SDS011;1055;48.854;9.302;2022-10-17T08:15:02;9.00;;;3.47;;
2099;SDS011;1055;48.854;9.302;2022-10-17T08:17:28;8.30;;;3.90;;
2099;SDS011;1055;48.854;9.302;2022-10-17T08:19:54;11.40;;;3.80;;
2099;SDS011;1055;48.854;9.302;2022-10-17T08:22:19;8.90;;;3.60;;
2099;SDS011;1055;48.854;9.302;2022-10-17T08:24:45;11.47;;;4.47;;
2099;SDS011;1055;48.854;9.302;2022-10-17T08:27:11;10.53;;;4.20;;
2099;SDS011;1055;48.854;9.302;2022-10-17T08:29:40;9.27;;;3.93;;
2099;SDS011;1055;48.854;9.302;2022-10-17T08:32:06;7.07;;;3.33;;
2099;SDS011;1055;48.854;9.302;2022-10-17T08:34:33;9.27;;;3.90;;
2099;SDS011;1055;48.854;9.302;2022-10-17T08:36:59;9.43;;;3.07;;
2099;SDS011;1055;48.854;9.302;2022-10-17T08:39:24;8.60;;;3.63;;
2099;SDS011;1055;48.854;9.302;2022-10-17T08:47:11;7.47;;;3.10;;
2099;SDS011;1055;48.854;9.302;2022-10-17T08:49:58;10.70;;;3.60;;
2099;SDS011;1055;48.854;9.302;2022-10-17T08:55:12;8.37;;;3.87;;
2099;SDS011;1055;48.854;9.302;2022-10-17T08:57:40;11.60;;;4.20;;
2099;SDS011;1055;48.854;9.302;2022-10-17T09:00:11;9.80;;;3.97;;
2099;SDS011;1055;48.854;9.302;2022-10-17T09:02:48;9.17;;;3.67;;
2099;SDS011;1055;48.854;9.302;2022-10-17T09:05:41;7.40;;;3.10;;
2099;SDS011;1055;48.854;9.302;2022-10-17T09:11:24;6.73;;;3.27;;
2099;SDS011;1055;48.854;9.302;2022-10-17T09:17:13;7.00;;;3.20;;
2099;SDS011;1055;48.854;9.302;2022-10-17T09:22:27;7.50;;;3.10;;
2099;SDS011;1055;48.854;9.302;2022-10-17T09:25:02;8.90;;;3.50;;
2099;SDS011;1055;48.854;9.302;2022-10-17T09:33:15;8.00;;;3.60;;
2099;SDS011;1055;48.854;9.302;2022-10-17T09:35:43;13.00;;;3.10;;
2099;SDS011;1055;48.854;9.302;2022-10-17T09:38:17;6.87;;;2.93;;
2099;SDS011;1055;48.854;9.302;2022-10-17T09:40:56;8.27;;;3.43;;
2099;SDS011;1055;48.854;9.302;2022-10-17T09:43:24;7.67;;;2.97;;
2099;SDS011;1055;48.854;9.302;2022-10-17T09:46:13;6.10;;;2.70;;
2099;SDS011;1055;48.854;9.302;2022-10-17T09:48:50;6.10;;;2.60;;
2099;SDS011;1055;48.854;9.302;2022-10-17T09:51:29;7.70;;;2.90;;
2099;SDS011;1055;48.854;9.302;2022-10-17T09:54:06;7.30;;;2.80;;
2099;SDS011;1055;48.854;9.302;2022-10-17T09:57:00;9.63;;;3.70;;
2099;SDS011;1055;48.854;9.302;2022-10-17T09:59:32;6.73;;;3.47;;
2099;SDS011;1055;48.854;9.302;2022-10-17T10:02:17;10.53;;;2.90;;
2099;SDS011;1055;48.854;9.302;2022-10-17T10:04:55;8.50;;;3.17;;
2099;SDS011;1055;48.854;9.302;2022-10-17T10:07:26;7.70;;;2.93;;
2099;SDS011;1055;48.854;9.302;2022-10-17T10:09:54;7.63;;;3.00;;
2099;SDS011;1055;48.854;9.302;2022-10-17T10:12:24;7.50;;;3.20;;
2099;SDS011;1055;48.854;9.302;2022-10-17T10:14:52;8.67;;;3.20;;
2099;SDS011;1055;48.854;9.302;2022-10-17T10:19:53;8.83;;;3.00;;
2099;SDS011;1055;48.854;9.302;2022-10-17T10:22:20;6.97;;;2.83;;
2099;SDS011;1055;48.854;9.302;2022-10-17T10:25:12;9.20;;;3.60;;
2099;SDS011;1055;48.854;9.302;2022-10-17T10:27:41;8.83;;;2.77;;
2099;SDS011;1055;48.854;9.302;2022-10-17T10:30:16;6.53;;;2.90;;
2099;SDS011;1055;48.854;9.302;2022-10-17T10:32:44;8.40;;;2.97;;
2099;SDS011;1055;48.854;9.302;2022-10-17T10:35:18;8.73;;;3.00;;
2099;SDS011;1055;48.854;9.302;2022-10-17T10:37:50;8.63;;;3.10;;
2099;SDS011;1055;48.854;9.302;2022-10-17T10:40:19;6.50;;;2.93;;
2099;SDS011;1055;48.854;9.302;2022-10-17T10:42:45;6.57;;;3.50;;
2099;SDS011;1055;48.854;9.302;2022-10-17T10:48:19;7.90;;;2.87;;
2099;SDS011;1055;48.854;9.302;2022-10-17T10:56:17;9.40;;;3.00;;
2099;SDS011;1055;48.854;9.302;2022-10-17T10:58:54;13.10;;;3.60;;
2099;SDS011;1055;48.854;9.302;2022-10-17T11:06:47;9.07;;;3.30;;
2099;SDS011;1055;48.854;9.302;2022-10-17T11:12:10;10.00;;;3.00;;
2099;SDS011;1055;48.854;9.302;2022-10-17T11:17:50;7.37;;;3.07;;
2099;SDS011;1055;48.854;9.302;2022-10-17T11:23:19;6.37;;;3.00;;
2099;SDS011;1055;48.854;9.302;2022-10-17T11:25:57;8.53;;;3.10;;
2099;SDS011;1055;48.854;9.302;2022-10-17T11:28:27;11.23;;;3.27;;
2099;SDS011;1055;48.854;9.302;2022-10-17T11:30:55;9.90;;;3.50;;
2099;SDS011;1055;48.854;9.302;2022-10-17T11:33:30;7.23;;;3.13;;
2099;SDS011;1055;48.854;9.302;2022-10-17T11:36:02;7.80;;;2.77;;
2099;SDS011;1055;48.854;9.302;2022-10-17T11:38:35;6.77;;;3.00;;
2099;SDS011;1055;48.854;9.302;2022-10-17T11:41:01;8.77;;;2.83;;
2099;SDS011;1055;48.854;9.302;2022-10-17T11:43:30;7.80;;;3.53;;
2099;SDS011;1055;48.854;9.302;2022-10-17T11:46:17;6.47;;;2.67;;
2099;SDS011;1055;48.854;9.302;2022-10-17T11:49:02;11.57;;;2.80;;
2099;SDS011;1055;48.854;9.302;2022-10-17T11:51:37;8.43;;;3.40;;
2099;SDS011;1055;48.854;9.302;2022-10-17T11:54:16;6.77;;;2.60;;
2099;SDS011;1055;48.854;9.302;2022-10-17T12:02:26;7.50;;;3.00;;
2099;SDS011;1055;48.854;9.302;2022-10-17T12:05:08;7.70;;;2.60;;
2099;SDS011;1055;48.854;9.302;2022-10-17T12:15:53;6.57;;;2.90;;
2099;SDS011;1055;48.854;9.302;2022-10-17T12:18:42;6.67;;;2.43;;
2099;SDS011;1055;48.854;9.302;2022-10-17T12:21:08;7.80;;;3.10;;
2099;SDS011;1055;48.854;9.302;2022-10-17T12:23:34;10.57;;;3.13;;
2099;SDS011;1055;48.854;9.302;2022-10-17T12:26:04;7.17;;;2.73;;
2099;SDS011;1055;48.854;9.302;2022-10-17T12:33:52;6.93;;;3.00;;
2099;SDS011;1055;48.854;9.302;2022-10-17T12:49:20;8.20;;;2.77;;
2099;SDS011;1055;48.854;9.302;2022-10-17T12:57:41;8.77;;;3.60;;
2099;SDS011;1055;48.854;9.302;2022-10-17T13:00:40;9.07;;;2.80;;
2099;SDS011;1055;48.854;9.302;2022-10-17T13:05:36;7.40;;;2.93;;
2099;SDS011;1055;48.854;9.302;2022-10-17T13:08:04;8.43;;;3.33;;
2099;SDS011;1055;48.854;9.302;2022-10-17T13:10:36;6.33;;;2.87;;
2099;SDS011;1055;48.854;9.302;2022-10-17T13:13:49;12.37;;;3.30;;
2099;SDS011;1055;48.854;9.302;2022-10-17T13:16:05;7.63;;;3.20;;
2099;SDS011;1055;48.854;9.302;2022-10-17T13:18:31;10.47;;;3.17;;
2099;SDS011;1055;48.854;9.302;2022-10-17T13:21:05;7.77;;;2.93;;
2099;SDS011;1055;48.854;9.302;2022-10-17T13:23:38;6.27;;;2.70;;
2099;SDS011;1055;48.854;9.302;2022-10-17T13:26:11;8.57;;;3.50;;
2099;SDS011;1055;48.854;9.302;2022-10-17T13:28:44;9.27;;;3.27;;
2099;SDS011;1055;48.854;9.302;2022-10-17T13:31:25;8.93;;;3.23;;
2099;SDS011;1055;48.854;9.302;2022-10-17T13:33:57;6.90;;;2.87;;
2099;SDS011;1055;48.854;9.302;2022-10-17T13:36:25;10.40;;;3.23;;
2099;SDS011;1055;48.854;9.302;2022-10-17T13:38:52;5.83;;;2.93;;
2099;SDS011;1055;48.854;9.302;2022-10-17T13:41:22;6.10;;;2.90;;
2099;SDS011;1055;48.854;9.302;2022-10-17T13:43:51;7.30;;;2.87;;
2099;SDS011;1055;48.854;9.302;2022-10-17T13:46:23;8.73;;;3.07;;
2099;SDS011;1055;48.854;9.302;2022-10-17T13:48:51;7.07;;;3.33;;
2099;SDS011;1055;48.854;9.302;2022-10-17T13:51:17;8.53;;;3.27;;
2099;SDS011;1055;48.854;9.302;2022-10-17T13:53:43;6.33;;;2.90;;
2099;SDS011;1055;48.854;9.302;2022-10-17T13:58:41;8.23;;;3.13;;
2099;SDS011;1055;48.854;9.302;2022-10-17T14:01:11;8.00;;;3.00;;
2099;SDS011;1055;48.854;9.302;2022-10-17T14:03:41;10.73;;;3.97;;
2099;SDS011;1055;48.854;9.302;2022-10-17T14:08:47;8.43;;;3.50;;
2099;SDS011;1055;48.854;9.302;2022-10-17T14:14:23;7.03;;;2.63;;
2099;SDS011;1055;48.854;9.302;2022-10-17T14:16:50;5.73;;;2.67;;
2099;SDS011;1055;48.854;9.302;2022-10-17T14:19:30;6.60;;;3.10;;
2099;SDS011;1055;48.854;9.302;2022-10-17T14:22:23;8.27;;;3.27;;
2099;SDS011;1055;48.854;9.302;2022-10-17T14:24:51;7.00;;;3.10;;
2099;SDS011;1055;48.854;9.302;2022-10-17T14:27:30;7.83;;;3.07;;
2099;SDS011;1055;48.854;9.302;2022-10-17T14:29:59;8.00;;;2.80;;
2099;SDS011;1055;48.854;9.302;2022-10-17T14:32:31;8.43;;;3.73;;
2099;SDS011;1055;48.854;9.302;2022-10-17T14:35:00;6.50;;;3.10;;
2099;SDS011;1055;48.854;9.302;2022-10-17T14:39:54;12.50;;;3.47;;
2099;SDS011;1055;48.854;9.302;2022-10-17T14:42:22;9.00;;;3.10;;
2099;SDS011;1055;48.854;9.302;2022-10-17T14:44:48;6.23;;;2.93;;
2099;SDS011;1055;48.854;9.302;2022-10-17T14:47:20;6.73;;;2.87;;
2099;SDS011;1055;48.854;9.302;2022-10-17T14:50:01;5.87;;;2.90;;
2099;SDS011;1055;48.854;9.302;2022-10-17T14:52:31;6.03;;;2.93;;
2099;SDS011;1055;48.854;9.302;2022-10-17T14:54:58;7.73;;;3.43;;
2099;SDS011;1055;48.854;9.302;2022-10-17T14:59:56;6.10;;;3.20;;
2099;SDS011;1055;48.854;9.302;2022-10-17T15:02:25;6.73;;;3.33;;
2099;SDS011;1055;48.854;9.302;2022-10-17T15:04:53;7.13;;;2.90;;
2099;SDS011;1055;48.854;9.302;2022-10-17T15:07:20;8.40;;;3.23;;
2099;SDS011;1055;48.854;9.302;2022-10-17T15:09:46;8.03;;;3.30;;
2099;SDS011;1055;48.854;9.302;2022-10-17T15:12:17;10.00;;;3.70;;
2099;SDS011;1055;48.854;9.302;2022-10-17T15:14:45;5.93;;;2.90;;
2099;SDS011;1055;48.854;9.302;2022-10-17T15:17:13;7.77;;;2.97;;
2099;SDS011;1055;48.854;9.302;2022-10-17T15:19:41;7.00;;;3.20;;
2099;SDS011;1055;48.854;9.302;2022-10-17T15:22:06;10.83;;;3.60;;
2099;SDS011;1055;48.854;9.302;2022-10-17T15:24:32;9.20;;;3.80;;
2099;SDS011;1055;48.854;9.302;2022-10-17T15:26:58;6.33;;;3.20;;
2099;SDS011;1055;48.854;9.302;2022-10-17T15:29:23;9.30;;;3.00;;
2099;SDS011;1055;48.854;9.302;2022-10-17T15:31:49;6.63;;;2.93;;
2099;SDS011;1055;48.854;9.302;2022-10-17T15:34:15;7.53;;;3.93;;
2099;SDS011;1055;48.854;9.302;2022-10-17T15:36:41;10.03;;;3.20;;
2099;SDS011;1055;48.854;9.302;2022-10-17T15:39:13;6.50;;;3.43;;
2099;SDS011;1055;48.854;9.302;2022-10-17T15:41:39;7.30;;;2.87;;
2099;SDS011;1055;48.854;9.302;2022-10-17T15:44:04;6.30;;;2.90;;
2099;SDS011;1055;48.854;9.302;2022-10-17T15:46:32;6.40;;;3.50;;
2099;SDS011;1055;48.854;9.302;2022-10-17T15:49:05;7.97;;;4.33;;
2099;SDS011;1055;48.854;9.302;2022-10-17T15:51:34;9.30;;;3.43;;
2099;SDS011;1055;48.854;9.302;2022-10-17T15:54:00;8.63;;;3.43;;
2099;SDS011;1055;48.854;9.302;2022-10-17T15:56:33;8.83;;;4.50;;
2099;SDS011;1055;48.854;9.302;2022-10-17T15:59:12;8.80;;;3.93;;
2099;SDS011;1055;48.854;9.302;2022-10-17T16:01:40;8.47;;;4.33;;
2099;SDS011;1055;48.854;9.302;2022-10-17T16:04:10;8.60;;;3.83;;
2099;SDS011;1055;48.854;9.302;2022-10-17T16:06:43;8.90;;;4.10;;
2099;SDS011;1055;48.854;9.302;2022-10-17T16:09:08;10.23;;;3.90;;
2099;SDS011;1055;48.854;9.302;2022-10-17T16:11:35;9.30;;;4.43;;
2099;SDS011;1055;48.854;9.302;2022-10-17T16:14:03;9.97;;;4.10;;
2099;SDS011;1055;48.854;9.302;2022-10-17T16:16:31;7.67;;;4.23;;
2099;SDS011;1055;48.854;9.302;2022-10-17T16:18:57;13.00;;;4.53;;
2099;SDS011;1055;48.854;9.302;2022-10-17T16:21:24;8.10;;;3.90;;
2099;SDS011;1055;48.854;9.302;2022-10-17T16:23:52;9.47;;;5.17;;
2099;SDS011;1055;48.854;9.302;2022-10-17T16:26:18;7.57;;;3.70;;
2099;SDS011;1055;48.854;9.302;2022-10-17T16:28:44;8.90;;;4.40;;
2099;SDS011;1055;48.854;9.302;2022-10-17T16:31:23;9.90;;;4.30;;
2099;SDS011;1055;48.854;9.302;2022-10-17T16:33:57;8.33;;;3.93;;
2099;SDS011;1055;48.854;9.302;2022-10-17T16:36:24;8.87;;;3.90;;
2099;SDS011;1055;48.854;9.302;2022-10-17T16:38:50;8.67;;;3.63;;
2099;SDS011;1055;48.854;9.302;2022-10-17T16:43:47;7.77;;;3.53;;
2099;SDS011;1055;48.854;9.302;2022-10-17T16:46:13;9.83;;;4.20;;
2099;SDS011;1055;48.854;9.302;2022-10-17T16:48:40;8.70;;;4.03;;
2099;SDS011;1055;48.854;9.302;2022-10-17T16:51:07;7.87;;;4.20;;
2099;SDS011;1055;48.854;9.302;2022-10-17T16:53:33;11.73;;;4.30;;
2099;SDS011;1055;48.854;9.302;2022-10-17T16:55:59;9.60;;;4.10;;
2099;SDS011;1055;48.854;9.302;2022-10-17T16:58:26;8.77;;;4.80;;
2099;SDS011;1055;48.854;9.302;2022-10-17T17:00:54;8.53;;;4.47;;
2099;SDS011;1055;48.854;9.302;2022-10-17T17:03:23;9.70;;;5.37;;
2099;SDS011;1055;48.854;9.302;2022-10-17T17:05:49;9.33;;;5.20;;
2099;SDS011;1055;48.854;9.302;2022-10-17T17:08:16;9.00;;;5.10;;
2099;SDS011;1055;48.854;9.302;2022-10-17T17:10:45;9.13;;;4.67;;
2099;SDS011;1055;48.854;9.302;2022-10-17T17:13:13;8.07;;;4.67;;
2099;SDS011;1055;48.854;9.302;2022-10-17T17:15:39;8.97;;;4.97;;
2099;SDS011;1055;48.854;9.302;2022-10-17T17:18:05;11.03;;;5.70;;
2099;SDS011;1055;48.854;9.302;2022-10-17T17:20:31;7.93;;;4.90;;
2099;SDS011;1055;48.854;9.302;2022-10-17T17:22:57;9.60;;;4.93;;
2099;SDS011;1055;48.854;9.302;2022-10-17T17:25:23;11.00;;;5.23;;
2099;SDS011;1055;48.854;9.302;2022-10-17T17:27:49;10.10;;;5.03;;
2099;SDS011;1055;48.854;9.302;2022-10-17T17:30:14;11.80;;;5.13;;
2099;SDS011;1055;48.854;9.302;2022-10-17T17:32:40;11.83;;;4.77;;
2099;SDS011;1055;48.854;9.302;2022-10-17T17:35:06;10.80;;;4.57;;
2099;SDS011;1055;48.854;9.302;2022-10-17T17:37:33;10.93;;;4.93;;